Hovedside
METAR-TAF:

METAR-TAF

Lufthavner :

Hanoi, Vietnam

breddegrad: 21-01N, lengdegrad: 105-48E, høyde over havet: 6 m

Gjeldene værobservasjon

Denne rapporten ble laget for 37 minutter siden, klokken 15:30 UTC
Vind 2 kt fra skiftende retning
Temperatur 19°C
Luftfuktighet 88%
Trykk 1019 hPa
Sikt: 8000 m

METAR: VVNB 201530Z VRB02KT 8000 NSC 19/17 Q1019 NOSIG

Tid: 23:07 (16:07 UTC)

Varsel

Denne rapporten ble laget for 5 timer og 7 minutter siden, klokken 11:00 UTC
Varsel gyldig fra 20. klokken 12 UTC til 21. klokken 12 UTC
Vind 3 kt fra skiftende retning
Sikt: 6000 m
Spredte skyer i en høyde av 3000 ft
Blir
fra 20. klokken 18 UTC til 20. klokken 20 UTC
Sikt: 4000 m
dis
Blir
fra 21. klokken 01 UTC til 21. klokken 02 UTC
Sikt: 6000 m

TAF: VVNB 201100Z 2012/2112 VRB03KT 6000 SCT030 BECMG 2018/2020 4000 BR BECMG 2101/2102 6000 NSW

Værobservasjoner og værvarsel for over 4000 flyplasser (METAR- og TAF-rapporter).

Tilgjengelige stasjoner er representert av de røde og gule prikkene på kartet.

Hold musepekeren over prikken for å se navnet på stasjonen.

Klikk så for å se værobservasjoner og -varsler.

For å forandre kartet kan du klikke på den grønne knappen med svart kryss for å zoome inn, på den grønne knappen med strek for å zoome ut, eller på de grønne pilene for å se tilstøtende kart.


METAR-TAF: